createdAt,value
2022-08-02T00:00:36.014Z,20.20
2022-08-02T00:03:04.298Z,20.20
2022-08-02T00:05:32.356Z,20.10
2022-08-02T00:08:00.567Z,20.20
2022-08-02T00:10:28.801Z,20.00
2022-08-02T00:12:58.843Z,20.00
2022-08-02T00:15:28.349Z,20.10
2022-08-02T00:17:56.437Z,20.10
2022-08-02T00:20:24.487Z,20.10
2022-08-02T00:22:52.600Z,20.10
2022-08-02T00:25:20.633Z,20.00
2022-08-02T00:27:48.792Z,20.10
2022-08-02T00:30:16.800Z,20.20
2022-08-02T00:32:46.306Z,20.10
2022-08-02T00:35:14.425Z,20.10
2022-08-02T00:37:43.003Z,20.10
2022-08-02T00:40:12.326Z,20.00
2022-08-02T00:42:41.188Z,19.90
2022-08-02T00:45:10.077Z,19.80
2022-08-02T00:47:38.144Z,19.90
2022-08-02T00:50:08.084Z,19.90
2022-08-02T00:52:36.130Z,19.90
2022-08-02T00:55:04.306Z,19.90
2022-08-02T00:57:32.558Z,19.90
2022-08-02T01:00:00.561Z,19.80
2022-08-02T01:02:28.705Z,19.70
2022-08-02T01:04:56.787Z,19.70
2022-08-02T01:07:26.279Z,19.70
2022-08-02T01:09:54.535Z,19.70
2022-08-02T01:12:22.664Z,19.70
2022-08-02T01:14:52.555Z,19.80
2022-08-02T01:17:30.125Z,19.70
2022-08-02T01:20:09.138Z,19.70
2022-08-02T01:23:01.513Z,19.70
2022-08-02T01:25:46.010Z,19.70
2022-08-02T01:28:32.657Z,19.60
2022-08-02T01:31:05.635Z,19.50
2022-08-02T01:33:40.413Z,19.40
2022-08-02T01:36:11.639Z,19.30
2022-08-02T01:38:44.559Z,19.40
2022-08-02T01:41:19.226Z,19.40
2022-08-02T01:43:50.694Z,19.50
2022-08-02T01:46:20.028Z,19.60
2022-08-02T01:48:50.975Z,19.60
2022-08-02T01:51:41.122Z,19.60
2022-08-02T01:54:13.344Z,19.60
2022-08-02T01:56:43.153Z,19.50
2022-08-02T01:59:17.781Z,19.50
2022-08-02T02:01:49.002Z,19.30
2022-08-02T02:04:18.522Z,19.30
2022-08-02T02:06:47.613Z,19.10
2022-08-02T02:09:17.444Z,19.00
2022-08-02T02:12:11.593Z,18.80
2022-08-02T02:14:38.617Z,18.80
2022-08-02T02:17:09.174Z,18.70
2022-08-02T02:19:59.782Z,18.80
2022-08-02T02:22:27.923Z,18.60
2022-08-02T02:24:56.086Z,18.60
2022-08-02T02:27:24.982Z,18.50
2022-08-02T02:29:55.860Z,18.60
2022-08-02T02:32:28.558Z,18.70
2022-08-02T02:34:57.619Z,18.80
2022-08-02T02:37:29.058Z,18.90
2022-08-02T02:39:59.136Z,19.00
2022-08-02T02:42:30.145Z,18.90
2022-08-02T02:45:01.102Z,18.90
2022-08-02T02:47:40.345Z,18.90
2022-08-02T02:50:11.463Z,19.00
2022-08-02T02:52:40.863Z,19.00
2022-08-02T02:55:10.738Z,19.00
2022-08-02T02:57:39.837Z,19.20
2022-08-02T03:00:11.758Z,19.40
2022-08-02T03:02:41.218Z,19.40
2022-08-02T03:05:11.082Z,19.30
2022-08-02T03:07:39.714Z,19.30
2022-08-02T03:10:09.528Z,19.40
2022-08-02T03:12:38.216Z,19.40
2022-08-02T03:15:09.524Z,19.40
2022-08-02T03:17:46.378Z,19.30
2022-08-02T03:20:16.616Z,19.20
2022-08-02T03:22:46.110Z,19.00
2022-08-02T03:25:16.200Z,19.00
2022-08-02T03:27:44.262Z,19.00
2022-08-02T03:30:15.200Z,19.00
2022-08-02T03:32:45.984Z,19.10
2022-08-02T03:35:22.940Z,19.30
2022-08-02T03:37:53.620Z,19.40
2022-08-02T03:40:22.818Z,19.60
2022-08-02T03:42:52.012Z,19.60
2022-08-02T03:45:21.983Z,19.60
2022-08-02T03:47:50.622Z,19.50
2022-08-02T03:50:19.668Z,19.30
2022-08-02T03:52:48.866Z,19.20
2022-08-02T03:55:16.963Z,19.20
2022-08-02T03:57:45.308Z,19.20
2022-08-02T04:00:18.540Z,19.20
2022-08-02T04:02:48.579Z,19.30
2022-08-02T04:05:16.637Z,19.40
2022-08-02T04:08:03.538Z,19.40
2022-08-02T04:10:54.010Z,19.40
2022-08-02T04:13:27.447Z,19.40
2022-08-02T04:16:04.276Z,19.50
2022-08-02T04:18:40.520Z,19.40
2022-08-02T04:21:11.545Z,19.50
2022-08-02T04:23:40.810Z,19.50
2022-08-02T04:26:10.913Z,19.60
2022-08-02T04:28:39.974Z,19.60
2022-08-02T04:31:08.791Z,19.70
2022-08-02T04:33:39.050Z,19.70
2022-08-02T04:36:08.177Z,19.70
2022-08-02T04:38:36.282Z,19.70
2022-08-02T04:41:04.375Z,19.70
2022-08-02T04:43:32.457Z,19.70
2022-08-02T04:46:02.807Z,19.70
2022-08-02T04:48:31.054Z,19.90
2022-08-02T04:51:00.569Z,19.90
2022-08-02T04:53:28.580Z,19.80
2022-08-02T04:55:56.765Z,19.70
2022-08-02T04:58:40.041Z,19.70
2022-08-02T05:01:08.940Z,19.70
2022-08-02T05:03:37.083Z,19.70
2022-08-02T05:06:19.282Z,19.70
2022-08-02T05:08:52.911Z,19.80
2022-08-02T05:11:22.299Z,20.10
2022-08-02T05:13:59.331Z,20.10
2022-08-02T05:16:31.195Z,20.10
2022-08-02T05:19:00.120Z,20.20
2022-08-02T05:21:29.623Z,20.20
2022-08-02T05:23:57.832Z,20.20
2022-08-02T05:26:25.851Z,20.40
2022-08-02T05:28:53.985Z,20.50
2022-08-02T05:31:22.456Z,20.60
2022-08-02T05:33:50.840Z,20.60
2022-08-02T05:36:19.216Z,20.90
2022-08-02T05:38:51.935Z,21.00
2022-08-02T05:41:20.414Z,20.70
2022-08-02T05:43:48.831Z,20.90
2022-08-02T05:46:16.981Z,20.90
2022-08-02T05:48:45.877Z,20.90
2022-08-02T05:51:19.123Z,21.00
2022-08-02T05:53:55.381Z,21.20
2022-08-02T05:56:33.996Z,21.20
2022-08-02T05:59:05.794Z,21.20
2022-08-02T06:01:36.802Z,21.20
2022-08-02T06:04:07.629Z,21.30
2022-08-02T06:06:36.686Z,21.50
2022-08-02T06:09:16.157Z,21.50
2022-08-02T06:12:11.108Z,21.30
2022-08-02T06:14:36.310Z,21.40
2022-08-02T06:17:05.916Z,21.60
2022-08-02T06:19:50.851Z,21.90
2022-08-02T06:22:37.545Z,21.80
2022-08-02T06:25:11.839Z,22.10
2022-08-02T06:27:56.764Z,22.30
2022-08-02T06:30:24.905Z,22.40
2022-08-02T06:32:53.617Z,22.80
2022-08-02T06:35:21.728Z,23.10
2022-08-02T06:37:58.628Z,23.10
2022-08-02T06:40:32.371Z,23.20
2022-08-02T06:43:11.550Z,23.30
2022-08-02T06:45:40.929Z,23.20
2022-08-02T06:48:10.052Z,23.40
2022-08-02T06:50:39.754Z,23.70
2022-08-02T06:53:08.148Z,24.20
2022-08-02T06:55:43.831Z,24.20
2022-08-02T06:58:12.882Z,24.30
2022-08-02T07:00:41.534Z,24.00
2022-08-02T07:03:09.705Z,24.00
2022-08-02T07:05:37.808Z,23.80
2022-08-02T07:08:06.347Z,23.50
2022-08-02T07:10:34.318Z,23.60
2022-08-02T07:13:03.845Z,23.70
2022-08-02T07:15:31.941Z,24.00
2022-08-02T07:18:00.024Z,24.30
2022-08-02T07:20:28.344Z,24.60
2022-08-02T07:22:56.423Z,24.90
2022-08-02T07:25:24.559Z,24.70
2022-08-02T07:27:52.641Z,24.60
2022-08-02T07:30:25.922Z,24.30
2022-08-02T07:32:53.946Z,24.20
2022-08-02T07:35:22.510Z,24.00
2022-08-02T07:37:55.134Z,23.90
2022-08-02T07:40:30.132Z,23.80
2022-08-02T07:43:03.380Z,24.00
2022-08-02T07:45:36.140Z,23.90
2022-08-02T07:48:13.808Z,24.00
2022-08-02T07:50:41.889Z,24.20
2022-08-02T07:53:09.947Z,24.20
2022-08-02T07:55:39.994Z,24.20
2022-08-02T07:58:12.284Z,24.20
2022-08-02T08:00:43.883Z,24.30
2022-08-02T08:03:12.579Z,24.40
2022-08-02T08:05:40.918Z,24.50
2022-08-02T08:08:13.585Z,24.70
2022-08-02T08:10:45.108Z,24.90
2022-08-02T08:13:13.109Z,25.00
2022-08-02T08:15:42.540Z,25.30
2022-08-02T08:18:20.382Z,25.40
2022-08-02T08:20:48.421Z,25.30
2022-08-02T08:23:16.458Z,25.40
2022-08-02T08:25:44.654Z,25.40
2022-08-02T08:28:13.732Z,25.30
2022-08-02T08:30:43.126Z,25.20
2022-08-02T08:33:11.198Z,25.20
2022-08-02T08:35:39.191Z,25.20
2022-08-02T08:38:08.010Z,25.10
2022-08-02T08:40:37.174Z,25.10
2022-08-02T08:43:06.075Z,24.90
2022-08-02T08:45:34.180Z,25.10
2022-08-02T08:48:11.399Z,25.10
2022-08-02T08:50:43.190Z,25.00
2022-08-02T08:53:12.435Z,24.90
2022-08-02T08:55:42.258Z,25.00
2022-08-02T08:58:10.341Z,25.10
2022-08-02T09:00:38.374Z,25.00
2022-08-02T09:03:09.591Z,25.00
2022-08-02T09:05:38.952Z,24.90
2022-08-02T09:08:07.556Z,25.10
2022-08-02T09:10:38.350Z,25.00
2022-08-02T09:13:37.983Z,25.10
2022-08-02T09:15:59.632Z,25.20
2022-08-02T09:18:44.667Z,25.20
2022-08-02T09:21:14.962Z,25.20
2022-08-02T09:23:45.437Z,25.20
2022-08-02T09:26:15.471Z,25.10
2022-08-02T09:28:44.787Z,25.10
2022-08-02T09:31:14.602Z,25.10
2022-08-02T09:33:47.065Z,25.40
2022-08-02T09:36:16.652Z,25.40
2022-08-02T09:38:55.068Z,25.40
2022-08-02T09:41:25.114Z,25.40
2022-08-02T09:44:05.169Z,25.40
2022-08-02T09:46:38.895Z,25.30
2022-08-02T09:49:11.207Z,25.20
2022-08-02T09:51:49.732Z,25.50
2022-08-02T09:54:19.365Z,25.80
2022-08-02T09:56:49.932Z,26.00
2022-08-02T09:59:20.225Z,25.50
2022-08-02T10:01:51.714Z,25.80
2022-08-02T10:04:34.360Z,26.20
2022-08-02T10:07:22.381Z,26.30
2022-08-02T10:09:51.635Z,26.60
2022-08-02T10:12:20.782Z,26.80
2022-08-02T10:14:51.757Z,26.60
2022-08-02T10:17:20.886Z,26.90
2022-08-02T10:20:03.156Z,27.40
2022-08-02T10:22:33.000Z,27.60
2022-08-02T10:25:04.059Z,27.10
2022-08-02T10:27:49.226Z,27.30
2022-08-02T10:30:24.277Z,27.30
2022-08-02T10:32:54.327Z,27.00
2022-08-02T10:35:26.696Z,26.80
2022-08-02T10:38:01.275Z,26.90
2022-08-02T10:40:44.627Z,26.90
2022-08-02T10:43:13.370Z,27.10
2022-08-02T10:45:41.520Z,26.90
2022-08-02T10:48:11.735Z,27.00
2022-08-02T10:50:56.947Z,27.40
2022-08-02T10:53:27.731Z,27.30
2022-08-02T10:55:57.806Z,27.90
2022-08-02T10:58:30.181Z,28.10
2022-08-02T11:01:00.073Z,28.10
2022-08-02T11:03:42.437Z,28.40
2022-08-02T11:06:25.691Z,28.60
2022-08-02T11:09:32.472Z,28.60
2022-08-02T11:12:04.018Z,28.10
2022-08-02T11:14:33.307Z,27.90
2022-08-02T11:17:12.787Z,28.00
2022-08-02T11:20:16.922Z,27.30
2022-08-02T11:22:48.126Z,27.00
2022-08-02T11:26:01.119Z,27.40
2022-08-02T11:28:25.002Z,27.80
2022-08-02T11:31:01.103Z,28.60
2022-08-02T11:33:34.565Z,28.70
2022-08-02T11:36:04.894Z,28.40
2022-08-02T11:38:34.344Z,28.60
2022-08-02T11:41:09.664Z,28.90
2022-08-02T11:43:39.657Z,28.90
2022-08-02T11:46:14.814Z,29.20
2022-08-02T11:48:44.686Z,28.20
2022-08-02T11:51:14.654Z,27.70
2022-08-02T11:53:46.586Z,27.70
2022-08-02T11:56:21.873Z,28.00
2022-08-02T11:59:07.778Z,27.60
2022-08-02T12:01:45.008Z,26.80
2022-08-02T12:04:18.546Z,26.90
2022-08-02T12:06:56.846Z,27.10
2022-08-02T12:09:28.114Z,27.40
2022-08-02T12:11:58.151Z,27.80
2022-08-02T12:14:28.214Z,27.60
2022-08-02T12:17:14.281Z,28.10
2022-08-02T12:19:43.413Z,27.60
2022-08-02T12:22:14.991Z,27.20
2022-08-02T12:24:48.702Z,27.10
2022-08-02T12:27:31.597Z,26.50
2022-08-02T12:30:02.931Z,26.90
2022-08-02T12:32:31.608Z,26.90
2022-08-02T12:35:04.003Z,26.90
2022-08-02T12:37:32.278Z,27.00
2022-08-02T12:40:20.813Z,27.00
2022-08-02T12:42:55.557Z,27.30
2022-08-02T12:45:24.329Z,27.40
2022-08-02T12:47:54.304Z,27.40
2022-08-02T12:50:27.155Z,27.20
2022-08-02T12:53:08.162Z,27.20
2022-08-02T12:56:00.886Z,27.00
2022-08-02T12:58:30.398Z,27.00
2022-08-02T13:01:02.087Z,26.60
2022-08-02T13:04:11.467Z,26.70
2022-08-02T13:06:41.138Z,26.60
2022-08-02T13:09:18.912Z,27.00
2022-08-02T13:11:48.468Z,27.20
2022-08-02T13:14:17.477Z,28.00
2022-08-02T13:16:47.351Z,28.60
2022-08-02T13:19:17.209Z,28.90
2022-08-02T13:22:01.891Z,28.80
2022-08-02T13:24:39.874Z,29.10
2022-08-02T13:30:04.710Z,29.00
2022-08-02T13:32:33.102Z,29.00
2022-08-02T13:35:01.694Z,28.40
2022-08-02T13:37:30.066Z,27.50
2022-08-02T13:40:20.519Z,27.30
2022-08-02T13:42:46.600Z,27.00
2022-08-02T13:45:16.064Z,27.10
2022-08-02T13:48:03.875Z,26.90
2022-08-02T13:50:34.002Z,26.90
2022-08-02T13:53:02.177Z,26.90
2022-08-02T13:55:32.916Z,26.60
2022-08-02T13:58:02.574Z,26.80
2022-08-02T14:00:34.788Z,27.00
2022-08-02T14:03:04.903Z,27.10
2022-08-02T14:05:39.517Z,27.30
2022-08-02T14:08:17.572Z,27.50
2022-08-02T14:10:46.331Z,27.80
2022-08-02T14:13:14.530Z,27.80
2022-08-02T14:15:44.168Z,28.00
2022-08-02T14:18:12.896Z,27.70
2022-08-02T14:20:42.615Z,27.40
2022-08-02T14:23:10.713Z,27.00
2022-08-02T14:25:39.141Z,27.30
2022-08-02T14:28:07.412Z,27.30
2022-08-02T14:30:36.339Z,26.80
2022-08-02T14:33:05.773Z,26.70
2022-08-02T14:35:34.499Z,27.40
2022-08-02T14:38:03.044Z,28.00
2022-08-02T14:40:32.167Z,28.80
2022-08-02T14:43:01.069Z,29.30
2022-08-02T14:45:41.044Z,28.80
2022-08-02T14:48:12.937Z,28.30
2022-08-02T14:50:41.140Z,28.40
2022-08-02T14:53:12.098Z,28.30
2022-08-02T14:55:42.840Z,28.20
2022-08-02T14:58:11.475Z,28.20
2022-08-02T15:00:41.420Z,27.80
2022-08-02T15:03:11.636Z,27.30
2022-08-02T15:05:40.327Z,27.40
2022-08-02T15:08:08.656Z,27.80
2022-08-02T15:10:36.990Z,27.90
2022-08-02T15:13:05.309Z,27.40
2022-08-02T15:15:42.219Z,27.40
2022-08-02T15:18:14.058Z,27.60
2022-08-02T15:20:47.786Z,27.40
2022-08-02T15:23:37.320Z,26.70
2022-08-02T15:26:06.525Z,26.50
2022-08-02T15:28:35.108Z,26.40
2022-08-02T15:31:03.359Z,26.60
2022-08-02T15:33:32.810Z,26.80
2022-08-02T15:36:01.309Z,27.00
2022-08-02T15:38:29.349Z,27.10
2022-08-02T15:40:57.411Z,27.40
2022-08-02T15:43:25.714Z,27.80
2022-08-02T15:45:53.810Z,27.70
2022-08-02T15:48:21.819Z,27.50
2022-08-02T15:50:51.328Z,27.40
2022-08-02T15:53:19.437Z,26.80
2022-08-02T15:55:52.634Z,26.70
2022-08-02T15:58:34.805Z,27.10
2022-08-02T16:01:12.706Z,27.00
2022-08-02T16:03:41.084Z,26.90
2022-08-02T16:06:11.195Z,26.80
2022-08-02T16:08:39.311Z,26.80
2022-08-02T16:11:21.412Z,26.70
2022-08-02T16:13:54.178Z,26.50
2022-08-02T16:16:23.905Z,26.40
2022-08-02T16:18:52.201Z,26.60
2022-08-02T16:21:22.874Z,26.60
2022-08-02T16:24:02.047Z,26.60
2022-08-02T16:26:31.507Z,26.60
2022-08-02T16:29:00.974Z,26.70
2022-08-02T16:31:29.130Z,26.60
2022-08-02T16:33:57.516Z,26.40
2022-08-02T16:36:27.775Z,26.40
2022-08-02T16:38:56.335Z,26.30
2022-08-02T16:41:24.589Z,26.50
2022-08-02T16:44:12.707Z,26.60
2022-08-02T16:46:40.809Z,26.70
2022-08-02T16:50:05.217Z,26.80
2022-08-02T16:52:03.068Z,26.70
2022-08-02T16:54:31.635Z,26.60
2022-08-02T16:56:59.820Z,26.40
2022-08-02T16:59:27.836Z,26.40
2022-08-02T17:02:15.055Z,26.40
2022-08-02T17:04:46.505Z,26.50
2022-08-02T17:08:08.396Z,26.60
2022-08-02T17:10:09.234Z,26.70
2022-08-02T17:12:38.553Z,26.70
2022-08-02T17:16:00.845Z,26.60
2022-08-02T17:17:55.853Z,26.70
2022-08-02T17:20:24.712Z,26.60
2022-08-02T17:22:54.295Z,26.50
2022-08-02T17:25:22.960Z,26.30
2022-08-02T17:27:55.968Z,26.20
2022-08-02T17:33:13.152Z,25.80
2022-08-02T17:35:52.508Z,25.60
2022-08-02T17:38:26.128Z,25.50
2022-08-02T17:40:55.037Z,25.50
2022-08-02T17:43:23.050Z,25.40
2022-08-02T17:46:00.743Z,25.30
2022-08-02T17:48:55.204Z,25.30
2022-08-02T17:52:14.675Z,25.10
2022-08-02T17:54:14.081Z,25.10
2022-08-02T17:56:42.902Z,25.00
2022-08-02T17:59:20.425Z,24.80
2022-08-02T18:01:53.067Z,24.60
2022-08-02T18:04:27.502Z,24.50
2022-08-02T18:06:57.514Z,24.60
2022-08-02T18:09:26.975Z,24.40
2022-08-02T18:11:55.193Z,24.20
2022-08-02T18:14:23.386Z,24.20
2022-08-02T18:16:54.654Z,24.10
2022-08-02T18:19:22.725Z,23.80
2022-08-02T18:21:50.958Z,23.90
2022-08-02T18:24:19.411Z,23.80
2022-08-02T18:26:53.668Z,23.70
2022-08-02T18:29:21.712Z,23.50
2022-08-02T18:31:58.341Z,23.30
2022-08-02T18:34:26.439Z,23.20
2022-08-02T18:36:54.514Z,22.90
2022-08-02T18:39:22.539Z,23.00
2022-08-02T18:41:50.640Z,23.20
2022-08-02T18:44:20.001Z,23.00
2022-08-02T18:46:49.376Z,22.70
2022-08-02T18:49:17.606Z,22.50
2022-08-02T18:51:45.982Z,22.40
2022-08-02T18:54:14.833Z,22.50
2022-08-02T18:56:47.209Z,22.40
2022-08-02T18:59:16.023Z,22.40
2022-08-02T19:01:50.763Z,22.40
2022-08-02T19:04:27.321Z,22.30
2022-08-02T19:06:56.507Z,22.30
2022-08-02T19:09:24.583Z,22.20
2022-08-02T19:11:54.227Z,22.20
2022-08-02T19:14:28.064Z,22.10
2022-08-02T19:16:59.648Z,22.10
2022-08-02T19:19:29.134Z,22.20
2022-08-02T19:22:18.410Z,22.20
2022-08-02T19:24:47.210Z,22.20
2022-08-02T19:27:20.672Z,22.00
2022-08-02T19:29:54.809Z,22.00
2022-08-02T19:32:42.482Z,21.90
2022-08-02T19:35:19.556Z,21.90
2022-08-02T19:37:59.525Z,21.80
2022-08-02T19:40:29.660Z,21.70
2022-08-02T19:44:24.724Z,21.70
2022-08-02T19:45:50.145Z,21.70
2022-08-02T19:48:23.567Z,21.80
2022-08-02T19:50:56.815Z,21.70
2022-08-02T19:53:47.162Z,21.80
2022-08-02T19:56:20.911Z,21.80
2022-08-02T19:58:51.492Z,21.80
2022-08-02T20:01:23.773Z,21.60
2022-08-02T20:03:57.992Z,21.90
2022-08-02T20:06:29.305Z,21.50
2022-08-02T20:08:59.258Z,21.40
2022-08-02T20:11:34.734Z,21.40
2022-08-02T20:14:04.986Z,21.30
2022-08-02T20:16:33.448Z,21.30
2022-08-02T20:19:04.025Z,21.10
2022-08-02T20:21:35.379Z,21.10
2022-08-02T20:24:06.083Z,21.10
2022-08-02T20:26:35.157Z,21.00
2022-08-02T20:29:04.196Z,21.00
2022-08-02T20:31:32.476Z,20.80
2022-08-02T20:34:00.619Z,20.80
2022-08-02T20:36:30.091Z,20.80
2022-08-02T20:38:58.211Z,20.80
2022-08-02T20:41:37.317Z,20.90
2022-08-02T20:44:15.410Z,21.00
2022-08-02T20:46:45.301Z,20.80
2022-08-02T20:49:21.653Z,20.90
2022-08-02T20:51:55.094Z,20.70
2022-08-02T20:54:26.327Z,20.90
2022-08-02T20:56:54.316Z,20.90
2022-08-02T20:59:24.021Z,20.90
2022-08-02T21:01:57.308Z,21.40
2022-08-02T21:04:26.505Z,21.20
2022-08-02T21:06:55.962Z,21.20
2022-08-02T21:12:12.957Z,20.90
2022-08-02T21:14:41.055Z,21.70
2022-08-02T21:17:11.138Z,22.00
2022-08-02T21:19:44.336Z,21.80
2022-08-02T21:22:14.100Z,21.60
2022-08-02T21:24:43.200Z,21.50
2022-08-02T21:27:53.339Z,21.60
2022-08-02T21:30:02.817Z,21.30
2022-08-02T21:32:31.016Z,21.10
2022-08-02T21:34:59.388Z,21.00
2022-08-02T21:37:32.975Z,20.90
2022-08-02T21:40:01.442Z,20.80
2022-08-02T21:42:29.516Z,20.80
2022-08-02T21:44:57.946Z,20.70
2022-08-02T21:47:26.791Z,20.70
2022-08-02T21:50:13.665Z,20.60
2022-08-02T21:52:52.365Z,20.50
2022-08-02T21:55:24.290Z,20.30
2022-08-02T21:58:09.679Z,20.30
2022-08-02T22:00:38.145Z,20.20
2022-08-02T22:03:23.269Z,20.10
2022-08-02T22:05:51.895Z,20.10
2022-08-02T22:08:23.557Z,20.00
2022-08-02T22:11:04.265Z,19.80
2022-08-02T22:13:47.231Z,19.80
2022-08-02T22:16:15.953Z,19.80
2022-08-02T22:18:51.444Z,19.70
2022-08-02T22:21:22.769Z,19.70
2022-08-02T22:23:53.039Z,19.70
2022-08-02T22:26:21.159Z,19.60
2022-08-02T22:28:51.917Z,19.60
2022-08-02T22:31:40.896Z,19.40
2022-08-02T22:34:26.786Z,19.40
2022-08-02T22:36:59.148Z,19.30
2022-08-02T22:39:28.682Z,19.20
2022-08-02T22:42:06.268Z,19.20
2022-08-02T22:44:35.701Z,19.10
2022-08-02T22:47:07.442Z,19.00
2022-08-02T22:49:51.678Z,19.00
2022-08-02T22:52:24.221Z,18.90
2022-08-02T22:54:54.866Z,18.90
2022-08-02T22:57:30.551Z,19.00
2022-08-02T22:58:50.121Z,25.90
2022-08-02T22:59:01.945Z,21.00
2022-08-02T23:00:00.346Z,18.90
2022-08-02T23:02:30.122Z,18.80
2022-08-02T23:04:58.494Z,18.70
2022-08-02T23:07:26.529Z,18.70
2022-08-02T23:09:56.000Z,18.80
2022-08-02T23:12:24.429Z,18.70
2022-08-02T23:14:53.666Z,18.90
2022-08-02T23:17:39.612Z,18.80
2022-08-02T23:20:09.956Z,18.80
2022-08-02T23:22:38.777Z,18.90
2022-08-02T23:25:09.041Z,18.80
2022-08-02T23:27:37.318Z,18.70
2022-08-02T23:30:06.942Z,18.60
2022-08-02T23:32:35.332Z,18.60
2022-08-02T23:35:03.401Z,18.50
2022-08-02T23:37:58.832Z,18.50
2022-08-02T23:40:39.379Z,18.50
2022-08-02T23:43:14.536Z,18.60
2022-08-02T23:45:45.181Z,18.60
2022-08-02T23:48:13.351Z,18.50
2022-08-02T23:50:41.538Z,18.50
2022-08-02T23:53:09.602Z,18.40
2022-08-02T23:55:39.004Z,18.40
2022-08-02T23:58:07.033Z,18.40
